createdAt,value
2017-11-13T00:00:30.421Z,997.34
2017-11-13T00:01:31.836Z,997.40
2017-11-13T00:02:33.253Z,997.37
2017-11-13T00:03:34.668Z,997.39
2017-11-13T00:04:36.082Z,997.42
2017-11-13T00:05:37.494Z,997.40
2017-11-13T00:06:38.916Z,997.42
2017-11-13T00:07:40.329Z,997.44
2017-11-13T00:08:41.750Z,997.47
2017-11-13T00:09:44.019Z,997.53
2017-11-13T00:10:45.454Z,997.52
2017-11-13T00:11:46.869Z,997.50
2017-11-13T00:12:48.304Z,997.50
2017-11-13T00:13:49.723Z,997.57
2017-11-13T00:14:51.144Z,997.58
2017-11-13T00:15:52.557Z,997.61
2017-11-13T00:16:53.975Z,997.66
2017-11-13T00:17:55.393Z,997.61
2017-11-13T00:18:56.804Z,997.64
2017-11-13T00:19:58.229Z,997.61
2017-11-13T00:20:59.717Z,997.60
2017-11-13T00:22:01.133Z,997.66
2017-11-13T00:23:02.546Z,997.66
2017-11-13T00:24:03.958Z,997.69
2017-11-13T00:25:05.380Z,997.72
2017-11-13T00:26:06.795Z,997.69
2017-11-13T00:27:08.221Z,997.71
2017-11-13T00:28:09.640Z,997.73
2017-11-13T00:29:11.064Z,997.76
2017-11-13T00:30:12.482Z,997.81
2017-11-13T00:31:13.912Z,997.76
2017-11-13T00:32:15.336Z,997.74
2017-11-13T00:33:16.754Z,997.71
2017-11-13T00:34:18.191Z,997.75
2017-11-13T00:35:19.609Z,997.77
2017-11-13T00:36:21.022Z,997.77
2017-11-13T00:37:22.434Z,997.90
2017-11-13T00:38:23.853Z,997.93
2017-11-13T00:39:26.270Z,997.96
2017-11-13T00:40:27.725Z,997.98
2017-11-13T00:41:29.142Z,997.95
2017-11-13T00:42:31.216Z,997.92
2017-11-13T00:43:32.638Z,997.89
2017-11-13T00:44:34.057Z,997.88
2017-11-13T00:45:35.484Z,997.88
2017-11-13T00:46:36.910Z,997.87
2017-11-13T00:47:38.329Z,997.92
2017-11-13T00:48:39.742Z,997.88
2017-11-13T00:49:41.156Z,997.98
2017-11-13T00:50:42.578Z,998.00
2017-11-13T00:51:43.982Z,998.03
2017-11-13T00:52:45.397Z,998.03
2017-11-13T00:53:46.813Z,998.01
2017-11-13T00:54:48.242Z,998.05
2017-11-13T00:55:49.650Z,998.11
2017-11-13T00:56:51.077Z,998.12
2017-11-13T00:57:52.488Z,998.11
2017-11-13T00:58:53.901Z,998.13
2017-11-13T00:59:55.325Z,998.12
2017-11-13T01:00:56.739Z,998.16
2017-11-13T01:01:58.166Z,998.20
2017-11-13T01:02:59.584Z,998.22
2017-11-13T01:04:00.990Z,998.20
2017-11-13T01:05:02.404Z,998.20
2017-11-13T01:06:03.820Z,998.18
2017-11-13T01:07:05.241Z,998.18
2017-11-13T01:08:06.649Z,998.24
2017-11-13T01:09:08.064Z,998.24
2017-11-13T01:10:09.482Z,998.22
2017-11-13T01:11:10.893Z,998.19
2017-11-13T01:12:12.304Z,998.21
2017-11-13T01:13:13.723Z,998.19
2017-11-13T01:14:15.137Z,998.22
2017-11-13T01:15:16.542Z,998.24
2017-11-13T01:16:17.957Z,998.25
2017-11-13T01:17:19.368Z,998.28
2017-11-13T01:18:20.794Z,998.30
2017-11-13T01:19:22.211Z,998.32
2017-11-13T01:20:23.625Z,998.28
2017-11-13T01:21:25.050Z,998.30
2017-11-13T01:22:26.540Z,998.35
2017-11-13T01:23:27.948Z,998.33
2017-11-13T01:24:29.363Z,998.32
2017-11-13T01:25:30.779Z,998.32
2017-11-13T01:26:32.200Z,998.34
2017-11-13T01:27:33.613Z,998.35
2017-11-13T01:28:35.035Z,998.38
2017-11-13T01:29:36.454Z,998.40
2017-11-13T01:30:37.864Z,998.42
2017-11-13T01:31:39.275Z,998.45
2017-11-13T01:32:40.697Z,998.47
2017-11-13T01:33:42.116Z,998.52
2017-11-13T01:34:43.541Z,998.55
2017-11-13T01:35:44.950Z,998.51
2017-11-13T01:36:46.365Z,998.50
2017-11-13T01:37:47.779Z,998.52
2017-11-13T01:38:49.191Z,998.50
2017-11-13T01:39:50.612Z,998.61
2017-11-13T01:40:52.024Z,998.57
2017-11-13T01:41:53.448Z,998.62
2017-11-13T01:42:54.862Z,998.60
2017-11-13T01:43:56.274Z,998.62
2017-11-13T01:44:57.690Z,998.62
2017-11-13T01:45:59.108Z,998.63
2017-11-13T01:47:00.530Z,998.57
2017-11-13T01:48:02.047Z,998.54
2017-11-13T01:49:03.469Z,998.55
2017-11-13T01:50:04.903Z,998.55
2017-11-13T01:51:06.331Z,998.56
2017-11-13T01:52:07.740Z,998.58
2017-11-13T01:53:09.152Z,998.65
2017-11-13T01:54:10.575Z,998.68
2017-11-13T01:55:11.994Z,998.69
2017-11-13T01:56:13.404Z,998.68
2017-11-13T01:57:14.824Z,998.64
2017-11-13T01:58:16.236Z,998.71
2017-11-13T01:59:17.650Z,998.68
2017-11-13T02:00:19.064Z,998.65
2017-11-13T02:01:20.486Z,998.66
2017-11-13T02:02:21.901Z,998.68
2017-11-13T02:03:23.312Z,998.72
2017-11-13T02:04:24.724Z,998.80
2017-11-13T02:05:26.143Z,998.77
2017-11-13T02:06:27.571Z,998.72
2017-11-13T02:07:28.990Z,998.71
2017-11-13T02:08:30.407Z,998.72
2017-11-13T02:09:31.827Z,998.78
2017-11-13T02:10:33.235Z,998.71
2017-11-13T02:11:34.648Z,998.81
2017-11-13T02:12:36.070Z,998.84
2017-11-13T02:13:37.495Z,998.84
2017-11-13T02:14:38.918Z,998.87
2017-11-13T02:15:40.333Z,998.88
2017-11-13T02:16:41.746Z,998.81
2017-11-13T02:17:43.164Z,998.89
2017-11-13T02:18:44.578Z,999.00
2017-11-13T02:19:45.997Z,998.94
2017-11-13T02:20:47.411Z,998.94
2017-11-13T02:21:48.815Z,998.92
2017-11-13T02:22:50.229Z,999.10
2017-11-13T02:23:51.643Z,999.05
2017-11-13T02:24:53.057Z,999.08
2017-11-13T02:25:54.476Z,999.10
2017-11-13T02:26:55.891Z,999.09
2017-11-13T02:27:57.304Z,999.11
2017-11-13T02:28:58.723Z,999.15
2017-11-13T02:30:00.135Z,999.12
2017-11-13T02:31:01.552Z,999.09
2017-11-13T02:32:02.964Z,999.17
2017-11-13T02:33:04.379Z,999.13
2017-11-13T02:34:05.783Z,999.20
2017-11-13T02:35:07.195Z,999.19
2017-11-13T02:36:08.622Z,999.24
2017-11-13T02:37:10.036Z,999.15
2017-11-13T02:38:11.459Z,999.23
2017-11-13T02:39:12.877Z,999.22
2017-11-13T02:40:14.304Z,999.19
2017-11-13T02:41:15.722Z,999.17
2017-11-13T02:42:17.146Z,999.18
2017-11-13T02:43:18.585Z,999.18
2017-11-13T02:44:20.004Z,999.23
2017-11-13T02:45:21.439Z,999.24
2017-11-13T02:46:22.876Z,999.25
2017-11-13T02:47:24.257Z,999.24
2017-11-13T02:48:25.669Z,999.26
2017-11-13T02:49:27.079Z,999.34
2017-11-13T02:50:28.500Z,999.26
2017-11-13T02:51:29.917Z,999.30
2017-11-13T02:52:31.335Z,999.29
2017-11-13T02:53:32.748Z,999.37
2017-11-13T02:54:34.164Z,999.30
2017-11-13T02:55:35.577Z,999.38
2017-11-13T02:56:36.997Z,999.36
2017-11-13T02:57:38.416Z,999.41
2017-11-13T02:58:39.838Z,999.46
2017-11-13T02:59:41.250Z,999.47
2017-11-13T03:00:42.679Z,999.40
2017-11-13T03:01:44.105Z,999.41
2017-11-13T03:02:45.520Z,999.37
2017-11-13T03:03:46.960Z,999.47
2017-11-13T03:04:48.369Z,999.43
2017-11-13T03:05:49.782Z,999.42
2017-11-13T03:06:51.197Z,999.44
2017-11-13T03:07:52.617Z,999.46
2017-11-13T03:08:54.053Z,999.48
2017-11-13T03:09:55.471Z,999.47
2017-11-13T03:10:56.883Z,999.46
2017-11-13T03:11:58.299Z,999.42
2017-11-13T03:12:59.718Z,999.45
2017-11-13T03:14:01.133Z,999.42
2017-11-13T03:15:02.546Z,999.49
2017-11-13T03:16:03.962Z,999.54
2017-11-13T03:17:05.382Z,999.55
2017-11-13T03:18:06.792Z,999.53
2017-11-13T03:19:08.207Z,999.52
2017-11-13T03:20:09.640Z,999.59
2017-11-13T03:21:11.047Z,999.59
2017-11-13T03:22:12.467Z,999.65
2017-11-13T03:23:13.997Z,999.72
2017-11-13T03:24:15.415Z,999.71
2017-11-13T03:25:16.839Z,999.74
2017-11-13T03:26:18.256Z,999.73
2017-11-13T03:27:19.673Z,999.78
2017-11-13T03:28:21.087Z,999.80
2017-11-13T03:29:22.512Z,999.81
2017-11-13T03:30:23.929Z,999.82
2017-11-13T03:31:25.340Z,999.91
2017-11-13T03:32:26.767Z,1000.01
2017-11-13T03:33:28.175Z,999.95
2017-11-13T03:34:29.603Z,1000.03
2017-11-13T03:35:31.021Z,1000.06
2017-11-13T03:36:32.442Z,1000.11
2017-11-13T03:37:33.864Z,1000.14
2017-11-13T03:38:35.265Z,1000.11
2017-11-13T03:39:36.684Z,1000.11
2017-11-13T03:40:38.096Z,1000.16
2017-11-13T03:41:39.517Z,1000.16
2017-11-13T03:42:40.931Z,1000.15
2017-11-13T03:43:42.343Z,1000.17
2017-11-13T03:44:43.760Z,1000.20
2017-11-13T03:45:45.172Z,1000.25
2017-11-13T03:46:46.586Z,1000.20
2017-11-13T03:47:48.008Z,1000.21
2017-11-13T03:48:49.428Z,1000.23
2017-11-13T03:49:50.850Z,1000.28
2017-11-13T03:50:52.280Z,1000.30
2017-11-13T03:51:53.693Z,1000.32
2017-11-13T03:52:55.111Z,1000.33
2017-11-13T03:53:56.528Z,1000.39
2017-11-13T03:54:57.952Z,1000.43
2017-11-13T03:55:59.368Z,1000.45
2017-11-13T03:57:00.784Z,1000.44
2017-11-13T03:58:02.208Z,1000.43
2017-11-13T03:59:03.621Z,1000.45
2017-11-13T04:00:05.041Z,1000.46
2017-11-13T04:01:06.453Z,1000.51
2017-11-13T04:02:07.867Z,1000.49
2017-11-13T04:03:09.289Z,1000.58
2017-11-13T04:04:10.706Z,1000.56
2017-11-13T04:05:12.115Z,1000.58
2017-11-13T04:06:13.531Z,1000.62
2017-11-13T04:07:14.941Z,1000.64
2017-11-13T04:08:16.357Z,1000.61
2017-11-13T04:09:17.783Z,1000.63
2017-11-13T04:10:19.199Z,1000.66
2017-11-13T04:11:20.615Z,1000.65
2017-11-13T04:12:22.043Z,1000.69
2017-11-13T04:13:23.465Z,1000.68
2017-11-13T04:14:24.888Z,1000.71
2017-11-13T04:15:26.308Z,1000.73
2017-11-13T04:16:27.728Z,1000.72
2017-11-13T04:17:29.148Z,1000.68
2017-11-13T04:18:30.564Z,1000.67
2017-11-13T04:19:31.991Z,1000.72
2017-11-13T04:20:33.412Z,1000.73
2017-11-13T04:21:34.831Z,1000.68
2017-11-13T04:22:36.252Z,1000.72
2017-11-13T04:23:37.667Z,1000.72
2017-11-13T04:24:39.087Z,1000.71
2017-11-13T04:25:40.508Z,1000.75
2017-11-13T04:26:41.949Z,1000.87
2017-11-13T04:27:43.357Z,1000.85
2017-11-13T04:28:44.776Z,1000.90
2017-11-13T04:29:46.190Z,1000.89
2017-11-13T04:30:47.597Z,1000.95
2017-11-13T04:31:49.012Z,1000.91
2017-11-13T04:32:50.422Z,1000.88
2017-11-13T04:33:51.844Z,1000.89
2017-11-13T04:34:53.258Z,1000.84
2017-11-13T04:35:54.671Z,1000.88
2017-11-13T04:36:56.088Z,1000.84
2017-11-13T04:37:57.508Z,1000.71
2017-11-13T04:38:58.941Z,1000.60
2017-11-13T04:40:00.370Z,1000.70
2017-11-13T04:41:01.786Z,1000.80
2017-11-13T04:42:03.204Z,1000.86
2017-11-13T04:43:04.620Z,1000.91
2017-11-13T04:44:06.043Z,1000.92
2017-11-13T04:45:07.466Z,1000.96
2017-11-13T04:46:08.897Z,1000.98
2017-11-13T04:47:10.317Z,1001.00
2017-11-13T04:48:11.731Z,1001.01
2017-11-13T04:49:13.142Z,1001.01
2017-11-13T04:50:14.567Z,1001.06
2017-11-13T04:51:15.992Z,1001.03
2017-11-13T04:52:17.406Z,1000.95
2017-11-13T04:53:18.813Z,1001.03
2017-11-13T04:54:20.238Z,1001.06
2017-11-13T04:55:21.653Z,1001.11
2017-11-13T04:56:23.079Z,1001.19
2017-11-13T04:57:24.524Z,1001.22
2017-11-13T04:58:25.947Z,1001.26
2017-11-13T04:59:27.366Z,1001.27
2017-11-13T05:00:28.789Z,1001.26
2017-11-13T05:01:30.303Z,1001.28
2017-11-13T05:02:31.916Z,1001.28
2017-11-13T05:03:33.337Z,1001.32
2017-11-13T05:04:34.756Z,1001.36
2017-11-13T05:05:36.413Z,1001.37
2017-11-13T05:06:37.827Z,1001.38
2017-11-13T05:07:39.253Z,1001.37
2017-11-13T05:08:40.734Z,1001.38
2017-11-13T05:09:42.152Z,1001.32
2017-11-13T05:10:43.573Z,1001.39
2017-11-13T05:11:44.985Z,1001.40
2017-11-13T05:12:46.403Z,1001.37
2017-11-13T05:13:47.822Z,1001.40
2017-11-13T05:14:49.241Z,1001.41
2017-11-13T05:15:50.656Z,1001.42
2017-11-13T05:16:52.071Z,1001.41
2017-11-13T05:17:53.493Z,1001.41
2017-11-13T05:18:54.906Z,1001.40
2017-11-13T05:19:56.320Z,1001.45
2017-11-13T05:20:57.735Z,1001.46
2017-11-13T05:21:59.145Z,1001.44
2017-11-13T05:23:00.558Z,1001.51
2017-11-13T05:24:01.972Z,1001.50
2017-11-13T05:25:03.388Z,1001.53
2017-11-13T05:26:04.817Z,1001.57
2017-11-13T05:27:06.236Z,1001.58
2017-11-13T05:28:07.664Z,1001.61
2017-11-13T05:29:09.092Z,1001.60
2017-11-13T05:30:10.510Z,1001.55
2017-11-13T05:31:11.921Z,1001.60
2017-11-13T05:32:13.336Z,1001.61
2017-11-13T05:33:14.760Z,1001.66
2017-11-13T05:34:16.171Z,1001.63
2017-11-13T05:35:17.543Z,1001.67
2017-11-13T05:36:18.958Z,1001.65
2017-11-13T05:37:20.381Z,1001.62
2017-11-13T05:38:21.796Z,1001.67
2017-11-13T05:39:23.331Z,1001.69
2017-11-13T05:40:24.750Z,1001.70
2017-11-13T05:41:26.163Z,1001.71
2017-11-13T05:42:27.585Z,1001.71
2017-11-13T05:43:28.997Z,1001.70
2017-11-13T05:44:30.415Z,1001.73
2017-11-13T05:45:31.793Z,1001.76
2017-11-13T05:46:33.208Z,1001.82
2017-11-13T05:47:34.624Z,1001.84
2017-11-13T05:48:36.044Z,1001.90
2017-11-13T05:49:37.471Z,1001.89
2017-11-13T05:50:38.888Z,1001.90
2017-11-13T05:51:40.302Z,1001.97
2017-11-13T05:52:41.721Z,1001.97
2017-11-13T05:53:43.138Z,1002.02
2017-11-13T05:54:44.555Z,1002.12
2017-11-13T05:55:46.206Z,1002.06
2017-11-13T05:56:47.697Z,1002.07
2017-11-13T05:57:49.128Z,1002.05
2017-11-13T05:58:50.685Z,1002.07
2017-11-13T05:59:52.202Z,1002.07
2017-11-13T06:00:53.751Z,1002.10
2017-11-13T06:01:55.260Z,1002.16
2017-11-13T06:02:56.748Z,1002.13
2017-11-13T06:03:58.310Z,1002.15
2017-11-13T06:04:59.844Z,1002.16
2017-11-13T06:06:01.334Z,1002.20
2017-11-13T06:07:02.761Z,1002.23
2017-11-13T06:08:04.186Z,1002.23
2017-11-13T06:09:05.658Z,1002.25
2017-11-13T06:10:07.095Z,1002.29
2017-11-13T06:11:08.534Z,1002.31
2017-11-13T06:12:09.946Z,1002.27
2017-11-13T06:13:11.374Z,1002.33
2017-11-13T06:14:12.793Z,1002.29
2017-11-13T06:15:14.224Z,1002.31
2017-11-13T06:16:15.636Z,1002.33
2017-11-13T06:17:17.064Z,1002.31
2017-11-13T06:18:18.473Z,1002.37
2017-11-13T06:19:19.890Z,1002.36
2017-11-13T06:20:21.319Z,1002.38
2017-11-13T06:21:22.737Z,1002.34
2017-11-13T06:22:24.160Z,1002.35
2017-11-13T06:23:25.571Z,1002.37
2017-11-13T06:24:26.987Z,1002.36
2017-11-13T06:25:28.406Z,1002.34
2017-11-13T06:26:29.816Z,1002.40
2017-11-13T06:27:31.234Z,1002.36
2017-11-13T06:28:32.651Z,1002.38
2017-11-13T06:29:34.072Z,1002.42
2017-11-13T06:30:35.507Z,1002.40
2017-11-13T06:31:36.913Z,1002.45
2017-11-13T06:32:38.328Z,1002.43
2017-11-13T06:33:39.747Z,1002.45
2017-11-13T06:34:41.160Z,1002.48
2017-11-13T06:35:42.583Z,1002.53
2017-11-13T06:36:43.996Z,1002.54
2017-11-13T06:37:45.411Z,1002.52
2017-11-13T06:38:46.828Z,1002.58
2017-11-13T06:39:48.248Z,1002.60
2017-11-13T06:40:49.666Z,1002.59
2017-11-13T06:41:51.076Z,1002.70
2017-11-13T06:42:52.497Z,1002.71
2017-11-13T06:43:53.928Z,1002.68
2017-11-13T06:44:55.353Z,1002.67
2017-11-13T06:45:56.780Z,1002.69
2017-11-13T06:46:58.197Z,1002.70
2017-11-13T06:47:59.613Z,1002.71
2017-11-13T06:49:01.036Z,1002.71
2017-11-13T06:50:02.446Z,1002.73
2017-11-13T06:51:03.871Z,1002.77
2017-11-13T06:52:05.290Z,1002.86
2017-11-13T06:53:06.708Z,1002.88
2017-11-13T06:54:08.127Z,1002.86
2017-11-13T06:55:09.534Z,1002.83
2017-11-13T06:56:10.954Z,1002.88
2017-11-13T06:57:12.377Z,1002.87
2017-11-13T06:58:13.794Z,1002.91
2017-11-13T06:59:15.209Z,1002.85
2017-11-13T07:00:16.631Z,1002.86
2017-11-13T07:01:18.056Z,1002.90
2017-11-13T07:02:19.479Z,1002.93
2017-11-13T07:03:20.896Z,1002.97
2017-11-13T07:04:22.318Z,1003.04
2017-11-13T07:05:23.734Z,1003.04
2017-11-13T07:06:25.151Z,1003.08
2017-11-13T07:07:26.570Z,1003.09
2017-11-13T07:08:27.984Z,1003.10
2017-11-13T07:09:29.401Z,1003.13
2017-11-13T07:10:30.823Z,1003.20
2017-11-13T07:11:32.246Z,1003.22
2017-11-13T07:12:33.669Z,1003.27
2017-11-13T07:13:35.091Z,1003.22
2017-11-13T07:14:36.518Z,1003.33
2017-11-13T07:15:37.939Z,1003.29
2017-11-13T07:16:39.355Z,1003.29
2017-11-13T07:17:40.779Z,1003.31
2017-11-13T07:18:42.211Z,1003.28
2017-11-13T07:19:43.649Z,1003.32
2017-11-13T07:20:45.068Z,1003.40
2017-11-13T07:21:46.481Z,1003.39
2017-11-13T07:22:47.901Z,1003.39
2017-11-13T07:23:49.328Z,1003.36
2017-11-13T07:24:50.742Z,1003.40
2017-11-13T07:25:52.159Z,1003.37
2017-11-13T07:26:53.588Z,1003.39
2017-11-13T07:27:55.008Z,1003.46
2017-11-13T07:28:56.482Z,1003.50
2017-11-13T07:29:57.906Z,1003.53
2017-11-13T07:30:59.329Z,1003.53
2017-11-13T07:32:00.761Z,1003.59
2017-11-13T07:33:02.179Z,1003.58
2017-11-13T07:34:03.604Z,1003.60
2017-11-13T07:35:05.027Z,1003.61
2017-11-13T07:36:06.456Z,1003.64
2017-11-13T07:37:07.873Z,1003.63
2017-11-13T07:38:09.298Z,1003.66
2017-11-13T07:39:10.714Z,1003.64
2017-11-13T07:40:12.135Z,1003.63
2017-11-13T07:41:13.557Z,1003.62
2017-11-13T07:42:14.970Z,1003.63
2017-11-13T07:43:16.351Z,1003.65
2017-11-13T07:44:17.771Z,1003.64
2017-11-13T07:45:19.191Z,1003.68
2017-11-13T07:46:20.609Z,1003.72
2017-11-13T07:47:22.029Z,1003.71
2017-11-13T07:48:23.460Z,1003.70
2017-11-13T07:49:24.873Z,1003.70
2017-11-13T07:50:26.292Z,1003.75
2017-11-13T07:51:27.722Z,1003.75
2017-11-13T07:52:29.136Z,1003.75
2017-11-13T07:53:30.560Z,1003.80
2017-11-13T07:54:31.975Z,1003.77
2017-11-13T07:55:33.476Z,1003.79
2017-11-13T07:56:34.892Z,1003.88
2017-11-13T07:57:36.310Z,1003.90
2017-11-13T07:58:37.729Z,1003.92
2017-11-13T07:59:39.150Z,1003.92
2017-11-13T08:00:40.574Z,1003.95
2017-11-13T08:01:42.030Z,1004.00
2017-11-13T08:02:43.454Z,1003.96
2017-11-13T08:03:44.860Z,1004.00
2017-11-13T08:04:46.276Z,1003.95
2017-11-13T08:05:47.690Z,1003.94
2017-11-13T08:06:49.106Z,1004.04
2017-11-13T08:07:50.521Z,1004.03
2017-11-13T08:08:51.940Z,1004.00
2017-11-13T08:09:53.366Z,1003.99
2017-11-13T08:10:54.784Z,1004.03
2017-11-13T08:11:56.203Z,1004.05
2017-11-13T08:12:57.617Z,1004.11
2017-11-13T08:13:59.037Z,1004.13
2017-11-13T08:15:00.461Z,1004.16
2017-11-13T08:16:01.891Z,1004.15
2017-11-13T08:17:03.296Z,1004.17
2017-11-13T08:18:04.710Z,1004.14
2017-11-13T08:19:06.133Z,1004.16
2017-11-13T08:20:07.571Z,1004.21
2017-11-13T08:21:08.972Z,1004.19
2017-11-13T08:22:10.396Z,1004.21
2017-11-13T08:23:11.811Z,1004.21
2017-11-13T08:24:13.232Z,1004.22
2017-11-13T08:25:14.653Z,1004.27
2017-11-13T08:26:16.067Z,1004.25
2017-11-13T08:27:17.487Z,1004.32
2017-11-13T08:28:18.900Z,1004.26
2017-11-13T08:29:20.332Z,1004.28
2017-11-13T08:30:21.762Z,1004.31
2017-11-13T08:31:23.182Z,1004.31
2017-11-13T08:32:24.601Z,1004.32
2017-11-13T08:33:26.018Z,1004.34
2017-11-13T08:34:27.447Z,1004.37
2017-11-13T08:35:28.872Z,1004.40
2017-11-13T08:36:30.295Z,1004.44
2017-11-13T08:37:31.721Z,1004.46
2017-11-13T08:38:33.139Z,1004.50
2017-11-13T08:39:34.566Z,1004.56
2017-11-13T08:40:35.984Z,1004.48
2017-11-13T08:41:37.399Z,1004.51
2017-11-13T08:42:38.823Z,1004.56
2017-11-13T08:43:40.242Z,1004.54
2017-11-13T08:44:41.656Z,1004.52
2017-11-13T08:45:43.070Z,1004.57
2017-11-13T08:46:44.562Z,1004.58
2017-11-13T08:47:45.975Z,1004.56
2017-11-13T08:48:47.391Z,1004.59
2017-11-13T08:49:48.807Z,1004.59
2017-11-13T08:50:50.224Z,1004.64
2017-11-13T08:51:51.639Z,1004.59
2017-11-13T08:52:53.065Z,1004.70
2017-11-13T08:53:54.472Z,1004.73
2017-11-13T08:54:55.886Z,1004.74
2017-11-13T08:55:57.258Z,1004.72
2017-11-13T08:56:58.675Z,1004.79
2017-11-13T08:58:00.089Z,1004.82
2017-11-13T08:59:01.528Z,1004.83
2017-11-13T09:00:02.946Z,1004.84
2017-11-13T09:01:04.367Z,1004.88
2017-11-13T09:02:05.783Z,1004.87
2017-11-13T09:03:07.197Z,1004.83
2017-11-13T09:04:08.617Z,1004.83
2017-11-13T09:05:10.039Z,1004.86
2017-11-13T09:06:11.541Z,1004.95
2017-11-13T09:07:12.968Z,1004.92
2017-11-13T09:08:14.383Z,1004.89
2017-11-13T09:09:15.804Z,1004.94
2017-11-13T09:10:17.227Z,1004.90
2017-11-13T09:11:18.643Z,1004.89
2017-11-13T09:12:20.058Z,1004.92
2017-11-13T09:13:21.480Z,1004.92
2017-11-13T09:14:22.899Z,1004.94
2017-11-13T09:15:24.329Z,1004.94
2017-11-13T09:16:25.744Z,1004.99
2017-11-13T09:17:27.165Z,1004.99
2017-11-13T09:18:28.574Z,1005.00
2017-11-13T09:19:30.000Z,1004.98
2017-11-13T09:20:31.425Z,1004.97
2017-11-13T09:21:32.843Z,1005.03
2017-11-13T09:22:34.258Z,1005.01
2017-11-13T09:23:35.681Z,1005.06
2017-11-13T09:24:37.109Z,1005.09
2017-11-13T09:25:38.536Z,1005.09
2017-11-13T09:26:39.957Z,1005.14
2017-11-13T09:27:41.378Z,1005.16
2017-11-13T09:28:42.814Z,1005.16
2017-11-13T09:29:44.230Z,1005.22
2017-11-13T09:30:45.640Z,1005.24
2017-11-13T09:31:47.148Z,1005.21
2017-11-13T09:32:48.571Z,1005.25
2017-11-13T09:33:49.987Z,1005.28
2017-11-13T09:34:51.411Z,1005.29
2017-11-13T09:35:52.841Z,1005.25
2017-11-13T09:36:54.288Z,1005.32
2017-11-13T09:37:55.711Z,1005.38
2017-11-13T09:38:57.236Z,1005.33
2017-11-13T09:39:58.664Z,1005.33
2017-11-13T09:41:00.081Z,1005.35
2017-11-13T09:42:01.504Z,1005.35
2017-11-13T09:43:02.922Z,1005.37
2017-11-13T09:44:04.336Z,1005.39
2017-11-13T09:45:05.764Z,1005.44
2017-11-13T09:46:07.227Z,1005.43
2017-11-13T09:47:08.652Z,1005.42
2017-11-13T09:48:10.065Z,1005.42
2017-11-13T09:49:11.485Z,1005.43
2017-11-13T09:50:13.583Z,1005.50
2017-11-13T09:51:15.027Z,1005.56
2017-11-13T09:52:16.444Z,1005.56
2017-11-13T09:53:17.863Z,1005.57
2017-11-13T09:54:19.285Z,1005.55
2017-11-13T09:55:20.704Z,1005.58
2017-11-13T09:56:22.127Z,1005.56
2017-11-13T09:57:23.554Z,1005.56
2017-11-13T09:58:24.977Z,1005.61
2017-11-13T09:59:26.401Z,1005.62
2017-11-13T10:00:27.824Z,1005.63
2017-11-13T10:01:29.243Z,1005.70
2017-11-13T10:02:30.673Z,1005.65
2017-11-13T10:03:32.096Z,1005.61
2017-11-13T10:04:33.528Z,1005.62
2017-11-13T10:05:34.963Z,1005.61
2017-11-13T10:06:36.400Z,1005.63
2017-11-13T10:07:37.815Z,1005.65
2017-11-13T10:08:39.234Z,1005.67
2017-11-13T10:09:40.656Z,1005.70
2017-11-13T10:10:42.091Z,1005.73
2017-11-13T10:11:43.509Z,1005.81
2017-11-13T10:12:44.933Z,1005.79
2017-11-13T10:13:46.353Z,1005.80
2017-11-13T10:14:47.773Z,1005.78
2017-11-13T10:15:49.199Z,1005.86
2017-11-13T10:16:50.620Z,1005.82
2017-11-13T10:17:52.050Z,1005.92
2017-11-13T10:18:53.460Z,1005.90
2017-11-13T10:19:54.883Z,1005.87
2017-11-13T10:20:56.306Z,1005.91
2017-11-13T10:21:57.731Z,1005.91
2017-11-13T10:22:59.157Z,1006.01
2017-11-13T10:24:00.575Z,1005.96
2017-11-13T10:25:01.994Z,1005.95
2017-11-13T10:26:03.424Z,1005.98
2017-11-13T10:27:04.842Z,1005.87
2017-11-13T10:28:06.263Z,1005.86
2017-11-13T10:29:07.683Z,1005.88
2017-11-13T10:30:09.111Z,1005.87
2017-11-13T10:31:10.532Z,1005.85
2017-11-13T10:32:11.952Z,1005.89
2017-11-13T10:33:13.375Z,1005.90
2017-11-13T10:34:14.792Z,1005.93
2017-11-13T10:35:16.219Z,1005.90
2017-11-13T10:36:17.635Z,1005.98
2017-11-13T10:37:19.070Z,1006.01
2017-11-13T10:38:20.488Z,1005.97
2017-11-13T10:39:21.918Z,1005.98
2017-11-13T10:40:23.350Z,1005.99
2017-11-13T10:41:24.773Z,1005.93
2017-11-13T10:42:26.205Z,1005.98
2017-11-13T10:43:27.628Z,1005.92
2017-11-13T10:44:29.051Z,1005.96
2017-11-13T10:45:30.470Z,1005.90
2017-11-13T10:46:31.886Z,1005.98
2017-11-13T10:47:33.310Z,1005.94
2017-11-13T10:48:34.740Z,1005.95
2017-11-13T10:49:36.166Z,1005.96
2017-11-13T10:50:37.593Z,1005.97
2017-11-13T10:51:39.021Z,1005.98
2017-11-13T10:52:40.435Z,1005.99
2017-11-13T10:53:41.856Z,1005.98
2017-11-13T10:54:43.282Z,1006.05
2017-11-13T10:55:44.748Z,1006.00
2017-11-13T10:56:46.174Z,1006.04
2017-11-13T10:57:47.602Z,1006.07
2017-11-13T10:58:49.021Z,1006.10
2017-11-13T10:59:50.444Z,1006.08
2017-11-13T11:00:51.871Z,1006.11
2017-11-13T11:01:53.290Z,1006.09
2017-11-13T11:02:54.722Z,1006.06
2017-11-13T11:03:56.167Z,1006.07
2017-11-13T11:04:57.584Z,1006.05
2017-11-13T11:05:59.004Z,1006.06
2017-11-13T11:07:00.420Z,1006.08
2017-11-13T11:08:02.017Z,1006.08
2017-11-13T11:09:03.461Z,1006.11
2017-11-13T11:10:04.879Z,1006.10
2017-11-13T11:11:06.301Z,1006.14
2017-11-13T11:12:07.727Z,1006.16
2017-11-13T11:13:09.150Z,1006.12
2017-11-13T11:14:10.578Z,1006.14
2017-11-13T11:15:12.026Z,1006.13
2017-11-13T11:16:13.447Z,1006.17
2017-11-13T11:17:14.884Z,1006.23
2017-11-13T11:18:16.304Z,1006.19
2017-11-13T11:19:17.735Z,1006.24
2017-11-13T11:20:19.160Z,1006.21
2017-11-13T11:21:20.606Z,1006.19
2017-11-13T11:22:22.034Z,1006.19
2017-11-13T11:23:23.464Z,1006.19
2017-11-13T11:24:24.888Z,1006.20
2017-11-13T11:25:26.305Z,1006.23
2017-11-13T11:26:27.745Z,1006.30
2017-11-13T11:27:29.162Z,1006.28
2017-11-13T11:28:30.591Z,1006.26
2017-11-13T11:29:32.027Z,1006.26
2017-11-13T11:30:33.450Z,1006.35
2017-11-13T11:31:34.889Z,1006.23
2017-11-13T11:32:36.309Z,1006.27
2017-11-13T11:33:37.736Z,1006.23
2017-11-13T11:34:39.176Z,1006.25
2017-11-13T11:35:40.594Z,1006.33
2017-11-13T11:36:42.026Z,1006.30
2017-11-13T11:37:43.555Z,1006.31
2017-11-13T11:38:44.979Z,1006.32
2017-11-13T11:39:46.409Z,1006.36
2017-11-13T11:40:47.834Z,1006.40
2017-11-13T11:41:49.256Z,1006.34
2017-11-13T11:42:50.679Z,1006.31
2017-11-13T11:43:52.119Z,1006.32
2017-11-13T11:44:53.545Z,1006.34
2017-11-13T11:45:54.970Z,1006.32
2017-11-13T11:46:56.401Z,1006.33
2017-11-13T11:47:57.836Z,1006.35
2017-11-13T11:48:59.261Z,1006.38
2017-11-13T11:50:00.732Z,1006.43
2017-11-13T11:51:02.154Z,1006.48
2017-11-13T11:52:03.584Z,1006.49
2017-11-13T11:53:05.020Z,1006.45
2017-11-13T11:54:06.446Z,1006.49
2017-11-13T11:55:07.877Z,1006.55
2017-11-13T11:56:09.301Z,1006.56
2017-11-13T11:57:10.730Z,1006.54
2017-11-13T11:58:12.144Z,1006.61
2017-11-13T11:59:13.583Z,1006.61
2017-11-13T12:00:15.012Z,1006.64
2017-11-13T12:01:16.437Z,1006.68
2017-11-13T12:02:17.861Z,1006.70
2017-11-13T12:03:19.295Z,1006.69
2017-11-13T12:04:20.761Z,1006.69
2017-11-13T12:05:22.183Z,1006.74
2017-11-13T12:06:23.610Z,1006.67
2017-11-13T12:07:25.029Z,1006.66
2017-11-13T12:08:26.452Z,1006.63
2017-11-13T12:09:27.884Z,1006.78
2017-11-13T12:10:29.315Z,1006.94
2017-11-13T12:11:30.773Z,1007.04
2017-11-13T12:12:32.242Z,1006.94
2017-11-13T12:13:33.671Z,1006.84
2017-11-13T12:14:35.098Z,1007.26
2017-11-13T12:15:36.528Z,1007.37
2017-11-13T12:16:37.948Z,1007.35
2017-11-13T12:17:39.373Z,1007.34
2017-11-13T12:18:40.798Z,1007.72
2017-11-13T12:19:42.247Z,1008.05
2017-11-13T12:20:43.666Z,1008.21
2017-11-13T12:21:45.079Z,1007.12
2017-11-13T12:22:46.530Z,1007.02
2017-11-13T12:23:47.950Z,1007.00
2017-11-13T12:24:49.379Z,1006.95
2017-11-13T12:25:50.824Z,1007.01
2017-11-13T12:26:52.245Z,1007.18
2017-11-13T12:27:53.673Z,1007.22
2017-11-13T12:28:55.100Z,1007.22
2017-11-13T12:29:56.529Z,1007.23